createdAt,value
2019-02-27T00:00:33.417Z,981.55
2019-02-27T00:01:32.442Z,981.49
2019-02-27T00:02:32.409Z,981.50
2019-02-27T00:03:32.390Z,981.53
2019-02-27T00:04:34.854Z,981.54
2019-02-27T00:05:32.369Z,981.47
2019-02-27T00:06:32.349Z,981.52
2019-02-27T00:07:32.369Z,981.52
2019-02-27T00:08:32.328Z,981.55
2019-02-27T00:09:32.868Z,981.49
2019-02-27T00:10:32.310Z,981.49
2019-02-27T00:11:32.289Z,981.46
2019-02-27T00:12:32.288Z,981.52
2019-02-27T00:13:32.311Z,981.45
2019-02-27T00:14:32.271Z,981.47
2019-02-27T00:15:32.248Z,981.40
2019-02-27T00:16:32.248Z,981.40
2019-02-27T00:17:32.232Z,981.40
2019-02-27T00:18:32.237Z,981.42
2019-02-27T00:19:32.248Z,981.39
2019-02-27T00:20:32.190Z,981.47
2019-02-27T00:21:32.188Z,981.46
2019-02-27T00:22:32.172Z,981.46
2019-02-27T00:23:32.173Z,981.46
2019-02-27T00:24:32.148Z,981.45
2019-02-27T00:25:35.927Z,981.42
2019-02-27T00:26:32.175Z,981.49
2019-02-27T00:27:32.129Z,981.52
2019-02-27T00:28:32.111Z,981.51
2019-02-27T00:29:32.112Z,981.49
2019-02-27T00:30:32.102Z,981.54
2019-02-27T00:31:32.071Z,981.53
2019-02-27T00:32:32.113Z,981.45
2019-02-27T00:33:32.058Z,981.47
2019-02-27T00:34:33.092Z,981.44
2019-02-27T00:35:32.062Z,981.52
2019-02-27T00:36:32.035Z,981.52
2019-02-27T00:37:32.009Z,981.43
2019-02-27T00:38:32.033Z,981.42
2019-02-27T00:39:32.001Z,981.44
2019-02-27T00:40:31.994Z,981.36
2019-02-27T00:41:31.953Z,981.39
2019-02-27T00:42:33.703Z,981.45
2019-02-27T00:43:31.949Z,981.45
2019-02-27T00:44:34.737Z,981.40
2019-02-27T00:45:31.928Z,981.42
2019-02-27T00:46:31.952Z,981.43
2019-02-27T00:47:31.909Z,981.35
2019-02-27T00:48:31.888Z,981.35
2019-02-27T00:49:32.326Z,981.35
2019-02-27T00:50:31.868Z,981.28
2019-02-27T00:51:31.886Z,981.29
2019-02-27T00:52:31.889Z,981.24
2019-02-27T00:53:31.849Z,981.26
2019-02-27T00:54:32.061Z,981.19
2019-02-27T00:55:31.808Z,981.17
2019-02-27T00:56:31.812Z,981.25
2019-02-27T00:57:31.791Z,981.29
2019-02-27T00:58:31.809Z,981.20
2019-02-27T00:59:33.114Z,981.13
2019-02-27T01:00:31.769Z,981.17
2019-02-27T01:01:31.748Z,981.24
2019-02-27T01:02:31.756Z,981.24
2019-02-27T01:03:31.734Z,981.20
2019-02-27T01:04:34.941Z,981.17
2019-02-27T01:05:31.710Z,981.19
2019-02-27T01:06:31.694Z,981.17
2019-02-27T01:07:31.689Z,981.18
2019-02-27T01:08:31.674Z,981.13
2019-02-27T01:09:31.681Z,981.14
2019-02-27T01:10:31.683Z,981.17
2019-02-27T01:11:31.649Z,981.21
2019-02-27T01:12:31.631Z,981.14
2019-02-27T01:13:31.861Z,981.16
2019-02-27T01:14:31.612Z,981.14
2019-02-27T01:15:31.630Z,981.12
2019-02-27T01:16:31.688Z,981.14
2019-02-27T01:17:31.674Z,981.12
2019-02-27T01:18:31.668Z,981.13
2019-02-27T01:19:31.627Z,981.10
2019-02-27T01:20:31.627Z,981.08
2019-02-27T01:21:31.657Z,981.09
2019-02-27T01:22:31.626Z,981.09
2019-02-27T01:23:31.619Z,981.03
2019-02-27T01:24:31.622Z,981.04
2019-02-27T01:25:31.592Z,981.08
2019-02-27T01:26:31.626Z,981.08
2019-02-27T01:27:31.606Z,981.14
2019-02-27T01:28:31.542Z,981.13
2019-02-27T01:29:31.546Z,981.11
2019-02-27T01:30:31.558Z,981.10
2019-02-27T01:31:31.429Z,981.10
2019-02-27T01:32:31.837Z,981.07
2019-02-27T01:33:31.512Z,981.05
2019-02-27T01:34:31.496Z,981.08
2019-02-27T01:35:31.475Z,981.05
2019-02-27T01:36:31.487Z,981.03
2019-02-27T01:37:32.271Z,981.04
2019-02-27T01:38:31.474Z,981.00
2019-02-27T01:39:31.447Z,981.00
2019-02-27T01:40:31.426Z,980.99
2019-02-27T01:41:31.405Z,980.93
2019-02-27T01:42:32.830Z,980.92
2019-02-27T01:43:31.293Z,980.95
2019-02-27T01:44:31.354Z,980.91
2019-02-27T01:45:31.354Z,980.90
2019-02-27T01:46:31.399Z,980.90
2019-02-27T01:47:31.387Z,980.90
2019-02-27T01:48:31.346Z,980.93
2019-02-27T01:49:31.319Z,980.93
2019-02-27T01:50:31.353Z,980.90
2019-02-27T01:51:31.294Z,980.87
2019-02-27T01:52:33.922Z,980.87
2019-02-27T01:53:31.277Z,980.92
2019-02-27T01:54:31.279Z,980.82
2019-02-27T01:55:31.250Z,980.78
2019-02-27T01:56:31.268Z,980.79
2019-02-27T01:57:31.276Z,980.80
2019-02-27T01:58:31.237Z,980.77
2019-02-27T01:59:31.201Z,980.82
2019-02-27T02:00:31.198Z,980.73
2019-02-27T02:01:31.213Z,980.79
2019-02-27T02:02:31.188Z,980.75
2019-02-27T02:03:31.139Z,980.75
2019-02-27T02:04:31.151Z,980.74
2019-02-27T02:05:31.148Z,980.69
2019-02-27T02:06:32.495Z,980.69
2019-02-27T02:07:31.030Z,980.61
2019-02-27T02:08:31.103Z,980.65
2019-02-27T02:09:31.539Z,980.65
2019-02-27T02:10:31.079Z,980.62
2019-02-27T02:11:32.743Z,980.63
2019-02-27T02:12:31.061Z,980.57
2019-02-27T02:13:31.074Z,980.61
2019-02-27T02:14:31.039Z,980.62
2019-02-27T02:15:31.410Z,980.57
2019-02-27T02:16:34.124Z,980.62
2019-02-27T02:17:31.025Z,980.63
2019-02-27T02:18:31.005Z,980.62
2019-02-27T02:19:31.001Z,980.63
2019-02-27T02:20:30.997Z,980.55
2019-02-27T02:21:32.067Z,980.53
2019-02-27T02:22:30.956Z,980.48
2019-02-27T02:23:30.939Z,980.46
2019-02-27T02:24:30.932Z,980.44
2019-02-27T02:25:31.028Z,980.44
2019-02-27T02:26:32.154Z,980.53
2019-02-27T02:27:31.155Z,980.48
2019-02-27T02:28:30.808Z,980.47
2019-02-27T02:29:30.787Z,980.49
2019-02-27T02:30:30.922Z,980.42
2019-02-27T02:31:30.774Z,980.45
2019-02-27T02:32:30.769Z,980.44
2019-02-27T02:33:30.789Z,980.44
2019-02-27T02:34:30.748Z,980.51
2019-02-27T02:35:30.731Z,980.43
2019-02-27T02:36:30.735Z,980.37
2019-02-27T02:37:33.683Z,980.42
2019-02-27T02:38:31.742Z,980.46
2019-02-27T02:39:30.768Z,980.52
2019-02-27T02:40:31.931Z,980.48
2019-02-27T02:41:30.678Z,980.51
2019-02-27T02:42:30.740Z,980.48
2019-02-27T02:43:30.751Z,980.42
2019-02-27T02:44:30.757Z,980.48
2019-02-27T02:45:33.102Z,980.45
2019-02-27T02:46:30.701Z,980.44
2019-02-27T02:47:30.686Z,980.41
2019-02-27T02:48:31.082Z,980.40
2019-02-27T02:49:30.673Z,980.39
2019-02-27T02:50:30.697Z,980.39
2019-02-27T02:51:30.742Z,980.43
2019-02-27T02:52:30.653Z,980.35
2019-02-27T02:53:30.621Z,980.37
2019-02-27T02:54:36.302Z,980.35
2019-02-27T02:55:32.350Z,980.40
2019-02-27T02:56:30.618Z,980.39
2019-02-27T02:57:35.931Z,980.31
2019-02-27T02:58:31.568Z,980.35
2019-02-27T02:59:30.553Z,980.39
2019-02-27T03:00:30.555Z,980.38
2019-02-27T03:01:30.597Z,980.37
2019-02-27T03:02:30.523Z,980.41
2019-02-27T03:03:35.969Z,980.39
2019-02-27T03:04:31.500Z,980.30
2019-02-27T03:05:30.492Z,980.32
2019-02-27T03:06:34.674Z,980.37
2019-02-27T03:07:31.524Z,980.34
2019-02-27T03:08:30.464Z,980.33
2019-02-27T03:09:31.664Z,980.33
2019-02-27T03:10:30.432Z,980.32
2019-02-27T03:11:30.418Z,980.32
2019-02-27T03:12:31.310Z,980.33
2019-02-27T03:13:30.441Z,980.38
2019-02-27T03:14:30.435Z,980.36
2019-02-27T03:15:30.410Z,980.29
2019-02-27T03:16:30.374Z,980.28
2019-02-27T03:17:30.352Z,980.24
2019-02-27T03:18:30.452Z,980.30
2019-02-27T03:19:30.375Z,980.25
2019-02-27T03:20:30.333Z,980.30
2019-02-27T03:21:30.306Z,980.29
2019-02-27T03:22:30.303Z,980.30
2019-02-27T03:23:30.309Z,980.32
2019-02-27T03:24:30.298Z,980.33
2019-02-27T03:25:30.752Z,980.36
2019-02-27T03:26:30.251Z,980.34
2019-02-27T03:27:30.877Z,980.30
2019-02-27T03:28:30.246Z,980.30
2019-02-27T03:29:30.224Z,980.28
2019-02-27T03:30:36.321Z,980.32
2019-02-27T03:31:31.247Z,980.28
2019-02-27T03:32:41.427Z,980.29
2019-02-27T03:33:31.204Z,980.32
2019-02-27T03:34:30.173Z,980.29
2019-02-27T03:35:30.175Z,980.27
2019-02-27T03:36:30.159Z,980.33
2019-02-27T03:37:30.176Z,980.33
2019-02-27T03:38:30.134Z,980.30
2019-02-27T03:39:34.398Z,980.29
2019-02-27T03:40:30.104Z,980.27
2019-02-27T03:41:30.113Z,980.34
2019-02-27T03:42:30.830Z,980.32
2019-02-27T03:43:30.127Z,980.32
2019-02-27T03:44:30.070Z,980.36
2019-02-27T03:45:31.007Z,980.38
2019-02-27T03:46:30.043Z,980.33
2019-02-27T03:47:30.028Z,980.38
2019-02-27T03:48:30.030Z,980.38
2019-02-27T03:49:30.063Z,980.32
2019-02-27T03:50:29.997Z,980.34
2019-02-27T03:51:30.002Z,980.35
2019-02-27T03:52:36.043Z,980.40
2019-02-27T03:53:30.990Z,980.38
2019-02-27T03:54:29.988Z,980.31
2019-02-27T03:55:32.908Z,980.36
2019-02-27T03:56:29.953Z,980.40
2019-02-27T03:57:29.947Z,980.39
2019-02-27T03:58:30.569Z,980.39
2019-02-27T03:59:29.913Z,980.38
2019-02-27T04:00:29.907Z,980.39
2019-02-27T04:01:30.493Z,980.35
2019-02-27T04:02:29.877Z,980.41
2019-02-27T04:03:29.867Z,980.37
2019-02-27T04:04:30.856Z,980.39
2019-02-27T04:05:29.849Z,980.40
2019-02-27T04:06:29.814Z,980.42
2019-02-27T04:07:31.786Z,980.43
2019-02-27T04:08:29.815Z,980.42
2019-02-27T04:09:29.798Z,980.45
2019-02-27T04:10:31.301Z,980.39
2019-02-27T04:11:29.780Z,980.38
2019-02-27T04:12:29.783Z,980.39
2019-02-27T04:13:29.775Z,980.38
2019-02-27T04:14:29.817Z,980.37
2019-02-27T04:15:29.736Z,980.36
2019-02-27T04:16:30.545Z,980.40
2019-02-27T04:17:29.719Z,980.42
2019-02-27T04:18:29.705Z,980.45
2019-02-27T04:19:29.706Z,980.45
2019-02-27T04:20:29.756Z,980.40
2019-02-27T04:21:29.667Z,980.51
2019-02-27T04:22:29.661Z,980.45
2019-02-27T04:23:29.641Z,980.50
2019-02-27T04:24:29.633Z,980.49
2019-02-27T04:25:31.439Z,980.49
2019-02-27T04:26:29.655Z,980.46
2019-02-27T04:27:29.596Z,980.49
2019-02-27T04:28:30.643Z,980.48
2019-02-27T04:29:29.598Z,980.48
2019-02-27T04:30:29.603Z,980.42
2019-02-27T04:31:30.623Z,980.39
2019-02-27T04:32:29.584Z,980.48
2019-02-27T04:33:29.543Z,980.42
2019-02-27T04:34:32.996Z,980.44
2019-02-27T04:35:29.532Z,980.49
2019-02-27T04:36:29.406Z,980.49
2019-02-27T04:37:29.504Z,980.48
2019-02-27T04:38:29.517Z,980.51
2019-02-27T04:39:29.485Z,980.51
2019-02-27T04:40:29.459Z,980.47
2019-02-27T04:41:29.451Z,980.53
2019-02-27T04:42:29.358Z,980.52
2019-02-27T04:43:31.943Z,980.46
2019-02-27T04:44:29.461Z,980.52
2019-02-27T04:45:29.407Z,980.48
2019-02-27T04:46:29.308Z,980.47
2019-02-27T04:47:30.388Z,980.49
2019-02-27T04:48:30.051Z,980.46
2019-02-27T04:49:29.358Z,980.52
2019-02-27T04:50:29.389Z,980.51
2019-02-27T04:51:29.341Z,980.50
2019-02-27T04:52:29.332Z,980.49
2019-02-27T04:53:32.014Z,980.48
2019-02-27T04:54:29.306Z,980.48
2019-02-27T04:55:29.301Z,980.53
2019-02-27T04:56:29.313Z,980.54
2019-02-27T04:57:30.798Z,980.55
2019-02-27T04:58:31.227Z,980.59
2019-02-27T04:59:29.262Z,980.54
2019-02-27T05:00:29.245Z,980.55
2019-02-27T05:01:29.292Z,980.52
2019-02-27T05:02:29.241Z,980.52
2019-02-27T05:03:29.231Z,980.54
2019-02-27T05:04:29.211Z,980.49
2019-02-27T05:05:29.206Z,980.51
2019-02-27T05:06:29.183Z,980.52
2019-02-27T05:07:29.218Z,980.52
2019-02-27T05:08:29.196Z,980.53
2019-02-27T05:09:31.346Z,980.51
2019-02-27T05:10:29.167Z,980.52
2019-02-27T05:11:29.132Z,980.49
2019-02-27T05:12:29.049Z,980.49
2019-02-27T05:13:29.168Z,980.53
2019-02-27T05:14:29.113Z,980.54
2019-02-27T05:15:29.103Z,980.53
2019-02-27T05:16:29.087Z,980.52
2019-02-27T05:17:29.063Z,980.57
2019-02-27T05:18:29.981Z,980.53
2019-02-27T05:19:29.110Z,980.50
2019-02-27T05:20:29.027Z,980.53
2019-02-27T05:21:29.029Z,980.52
2019-02-27T05:22:29.014Z,980.55
2019-02-27T05:23:30.907Z,980.58
2019-02-27T05:24:28.985Z,980.56
2019-02-27T05:25:29.042Z,980.54
2019-02-27T05:26:28.988Z,980.56
2019-02-27T05:27:28.981Z,980.52
2019-02-27T05:28:28.962Z,980.54
2019-02-27T05:29:28.950Z,980.55
2019-02-27T05:30:28.943Z,980.51
2019-02-27T05:31:28.952Z,980.52
2019-02-27T05:32:28.933Z,980.54
2019-02-27T05:33:28.921Z,980.48
2019-02-27T05:34:28.872Z,980.55
2019-02-27T05:35:28.878Z,980.58
2019-02-27T05:36:31.448Z,980.50
2019-02-27T05:37:28.876Z,980.57
2019-02-27T05:38:28.870Z,980.52
2019-02-27T05:39:28.734Z,980.53
2019-02-27T05:40:28.807Z,980.45
2019-02-27T05:41:32.946Z,980.46
2019-02-27T05:42:28.725Z,980.42
2019-02-27T05:43:28.771Z,980.47
2019-02-27T05:44:28.786Z,980.45
2019-02-27T05:45:31.188Z,980.45
2019-02-27T05:46:28.654Z,980.47
2019-02-27T05:47:28.676Z,980.49
2019-02-27T05:48:28.743Z,980.43
2019-02-27T05:49:28.729Z,980.44
2019-02-27T05:50:28.733Z,980.44
2019-02-27T05:51:28.752Z,980.42
2019-02-27T05:52:28.725Z,980.44
2019-02-27T05:53:28.686Z,980.51
2019-02-27T05:54:30.014Z,980.55
2019-02-27T05:55:28.648Z,980.55
2019-02-27T05:56:28.628Z,980.57
2019-02-27T05:57:28.634Z,980.50
2019-02-27T05:58:28.695Z,980.53
2019-02-27T05:59:29.447Z,980.59
2019-02-27T06:00:28.606Z,980.59
2019-02-27T06:01:28.589Z,980.59
2019-02-27T06:02:28.592Z,980.62
2019-02-27T06:03:28.600Z,980.64
2019-02-27T06:04:28.594Z,980.64
2019-02-27T06:05:28.540Z,980.62
2019-02-27T06:06:28.550Z,980.68
2019-02-27T06:07:28.532Z,980.63
2019-02-27T06:08:28.500Z,980.60
2019-02-27T06:09:28.551Z,980.53
2019-02-27T06:10:28.552Z,980.61
2019-02-27T06:11:29.618Z,980.59
2019-02-27T06:12:28.377Z,980.63
2019-02-27T06:13:28.471Z,980.68
2019-02-27T06:14:28.463Z,980.72
2019-02-27T06:15:29.175Z,980.70
2019-02-27T06:16:28.486Z,980.79
2019-02-27T06:17:28.434Z,980.77
2019-02-27T06:18:28.411Z,980.75
2019-02-27T06:19:30.579Z,980.75
2019-02-27T06:20:29.393Z,980.74
2019-02-27T06:21:28.423Z,980.80
2019-02-27T06:22:30.545Z,980.80
2019-02-27T06:23:28.362Z,980.82
2019-02-27T06:24:28.349Z,980.83
2019-02-27T06:25:28.368Z,980.79
2019-02-27T06:26:32.234Z,980.84
2019-02-27T06:27:28.357Z,980.83
2019-02-27T06:28:28.320Z,980.82
2019-02-27T06:29:28.403Z,980.88
2019-02-27T06:30:30.787Z,980.88
2019-02-27T06:31:28.276Z,980.84
2019-02-27T06:32:28.259Z,980.88
2019-02-27T06:33:28.295Z,980.88
2019-02-27T06:34:28.242Z,980.86
2019-02-27T06:35:28.156Z,980.92
2019-02-27T06:36:28.148Z,980.91
2019-02-27T06:37:28.121Z,980.95
2019-02-27T06:38:28.146Z,980.96
2019-02-27T06:39:28.080Z,980.91
2019-02-27T06:40:28.080Z,980.93
2019-02-27T06:41:28.091Z,980.92
2019-02-27T06:42:28.107Z,980.92
2019-02-27T06:43:28.054Z,980.89
2019-02-27T06:44:28.083Z,980.96
2019-02-27T06:45:28.089Z,981.00
2019-02-27T06:46:28.115Z,980.96
2019-02-27T06:47:27.988Z,981.00
2019-02-27T06:48:27.993Z,981.00
2019-02-27T06:49:27.978Z,981.06
2019-02-27T06:50:28.015Z,980.98
2019-02-27T06:51:28.070Z,981.04
2019-02-27T06:52:27.946Z,980.99
2019-02-27T06:53:27.948Z,981.01
2019-02-27T06:54:28.056Z,980.99
2019-02-27T06:55:28.768Z,981.01
2019-02-27T06:56:27.931Z,981.00
2019-02-27T06:57:27.894Z,981.02
2019-02-27T06:58:27.879Z,981.07
2019-02-27T06:59:27.891Z,981.10
2019-02-27T07:00:27.848Z,981.07
2019-02-27T07:01:27.856Z,981.03
2019-02-27T07:02:27.890Z,981.03
2019-02-27T07:03:29.565Z,981.03
2019-02-27T07:04:27.808Z,981.02
2019-02-27T07:05:27.809Z,981.00
2019-02-27T07:06:27.803Z,980.96
2019-02-27T07:07:28.825Z,980.94
2019-02-27T07:08:27.926Z,980.97
2019-02-27T07:09:27.766Z,980.94
2019-02-27T07:10:27.830Z,980.91
2019-02-27T07:11:27.840Z,980.92
2019-02-27T07:12:27.844Z,980.93
2019-02-27T07:13:29.849Z,980.93
2019-02-27T07:14:27.838Z,980.95
2019-02-27T07:15:27.771Z,980.94
2019-02-27T07:16:27.819Z,980.99
2019-02-27T07:17:29.234Z,980.97
2019-02-27T07:18:27.769Z,980.93
2019-02-27T07:19:27.744Z,980.91
2019-02-27T07:20:27.786Z,980.96
2019-02-27T07:21:32.421Z,980.92
2019-02-27T07:22:28.707Z,980.91
2019-02-27T07:23:27.717Z,980.89
2019-02-27T07:24:30.529Z,980.97
2019-02-27T07:25:28.707Z,980.98
2019-02-27T07:26:27.672Z,981.02
2019-02-27T07:27:28.330Z,980.93
2019-02-27T07:28:27.652Z,981.00
2019-02-27T07:29:28.095Z,981.02
2019-02-27T07:30:27.645Z,980.99
2019-02-27T07:31:27.567Z,981.00
2019-02-27T07:32:31.416Z,980.95
2019-02-27T07:33:27.492Z,980.87
2019-02-27T07:34:27.489Z,980.91
2019-02-27T07:35:29.182Z,980.90
2019-02-27T07:36:27.473Z,980.93
2019-02-27T07:37:27.490Z,980.94
2019-02-27T07:38:27.440Z,980.92
2019-02-27T07:39:27.431Z,980.88
2019-02-27T07:40:27.420Z,980.94
2019-02-27T07:41:27.408Z,980.91
2019-02-27T07:42:31.869Z,980.85
2019-02-27T07:43:28.430Z,980.89
2019-02-27T07:44:27.376Z,980.88
2019-02-27T07:45:27.368Z,980.92
2019-02-27T07:46:27.353Z,980.88
2019-02-27T07:47:27.351Z,980.82
2019-02-27T07:48:27.333Z,980.89
2019-02-27T07:49:28.326Z,980.94
2019-02-27T07:50:27.308Z,980.83
2019-02-27T07:51:27.301Z,980.89
2019-02-27T07:52:32.247Z,980.89
2019-02-27T07:53:28.278Z,980.81
2019-02-27T07:54:29.023Z,980.80
2019-02-27T07:55:28.526Z,980.84
2019-02-27T07:56:27.309Z,980.80
2019-02-27T07:57:27.236Z,980.80
2019-02-27T07:58:29.262Z,980.82
2019-02-27T07:59:28.210Z,980.84
2019-02-27T08:00:27.233Z,980.83
2019-02-27T08:01:27.251Z,980.83
2019-02-27T08:02:27.231Z,980.85
2019-02-27T08:03:27.170Z,980.80
2019-02-27T08:04:27.156Z,980.77
2019-02-27T08:05:29.055Z,980.76
2019-02-27T08:06:27.134Z,980.70
2019-02-27T08:07:27.155Z,980.72
2019-02-27T08:08:27.160Z,980.76
2019-02-27T08:09:29.946Z,980.74
2019-02-27T08:10:27.092Z,980.79
2019-02-27T08:11:27.075Z,980.82
2019-02-27T08:12:27.068Z,980.82
2019-02-27T08:13:29.682Z,980.82
2019-02-27T08:14:27.050Z,980.81
2019-02-27T08:15:27.038Z,980.77
2019-02-27T08:16:27.020Z,980.80
2019-02-27T08:17:27.012Z,980.78
2019-02-27T08:18:30.065Z,980.74
2019-02-27T08:19:27.030Z,980.75
2019-02-27T08:20:26.977Z,980.76
2019-02-27T08:21:26.965Z,980.70
2019-02-27T08:22:26.957Z,980.71
2019-02-27T08:23:26.958Z,980.66
2019-02-27T08:24:27.056Z,980.68
2019-02-27T08:25:26.965Z,980.66
2019-02-27T08:26:26.955Z,980.67
2019-02-27T08:27:26.906Z,980.65
2019-02-27T08:28:26.901Z,980.66
2019-02-27T08:29:26.893Z,980.66
2019-02-27T08:30:26.875Z,980.64
2019-02-27T08:31:28.190Z,980.63
2019-02-27T08:32:26.851Z,980.63
2019-02-27T08:33:26.860Z,980.63
2019-02-27T08:34:26.836Z,980.64
2019-02-27T08:35:26.824Z,980.63
2019-02-27T08:36:26.806Z,980.63
2019-02-27T08:37:26.825Z,980.65
2019-02-27T08:38:26.789Z,980.62
2019-02-27T08:39:26.778Z,980.67
2019-02-27T08:40:26.767Z,980.66
2019-02-27T08:41:29.117Z,980.68
2019-02-27T08:42:26.742Z,980.66
2019-02-27T08:43:26.769Z,980.69
2019-02-27T08:44:26.724Z,980.67
2019-02-27T08:45:27.672Z,980.62
2019-02-27T08:46:26.708Z,980.69
2019-02-27T08:47:26.679Z,980.65
2019-02-27T08:48:26.680Z,980.63
2019-02-27T08:49:27.666Z,980.64
2019-02-27T08:50:29.157Z,980.66
2019-02-27T08:51:26.645Z,980.64
2019-02-27T08:52:26.634Z,980.64
2019-02-27T08:53:27.022Z,980.62
2019-02-27T08:54:26.618Z,980.59
2019-02-27T08:55:26.662Z,980.57
2019-02-27T08:56:26.593Z,980.53
2019-02-27T08:57:26.580Z,980.56
2019-02-27T08:58:29.219Z,980.54
2019-02-27T08:59:26.556Z,980.46
2019-02-27T09:00:26.544Z,980.53
2019-02-27T09:01:26.568Z,980.53
2019-02-27T09:02:29.234Z,980.54
2019-02-27T09:03:26.510Z,980.53
2019-02-27T09:04:26.554Z,980.50
2019-02-27T09:05:26.509Z,980.53
2019-02-27T09:06:27.513Z,980.45
2019-02-27T09:07:26.511Z,980.44
2019-02-27T09:08:26.457Z,980.46
2019-02-27T09:09:26.461Z,980.39
2019-02-27T09:10:30.492Z,980.46
2019-02-27T09:11:26.436Z,980.41
2019-02-27T09:12:26.417Z,980.41
2019-02-27T09:13:26.445Z,980.39
2019-02-27T09:14:26.388Z,980.27
2019-02-27T09:15:26.380Z,980.28
2019-02-27T09:16:26.659Z,980.24
2019-02-27T09:17:27.355Z,980.24
2019-02-27T09:18:26.345Z,980.20
2019-02-27T09:19:26.371Z,980.21
2019-02-27T09:20:26.324Z,980.20
2019-02-27T09:21:28.008Z,980.18
2019-02-27T09:22:26.323Z,980.14
2019-02-27T09:23:26.289Z,980.19
2019-02-27T09:24:26.410Z,980.16
2019-02-27T09:25:26.311Z,980.14
2019-02-27T09:26:26.256Z,980.14
2019-02-27T09:27:26.249Z,980.13
2019-02-27T09:28:26.230Z,980.11
2019-02-27T09:29:26.222Z,980.15
2019-02-27T09:30:29.326Z,980.14
2019-02-27T09:31:26.243Z,980.10
2019-02-27T09:32:26.207Z,980.09
2019-02-27T09:33:26.180Z,980.09
2019-02-27T09:34:26.883Z,980.12
2019-02-27T09:35:26.159Z,980.16
2019-02-27T09:36:26.136Z,980.05
2019-02-27T09:37:26.178Z,980.09
2019-02-27T09:38:26.146Z,980.07
2019-02-27T09:39:30.655Z,980.03
2019-02-27T09:40:27.102Z,980.04
2019-02-27T09:41:26.091Z,980.07
2019-02-27T09:42:26.078Z,980.04
2019-02-27T09:43:27.208Z,980.03
2019-02-27T09:44:26.072Z,980.09
2019-02-27T09:45:26.041Z,980.05
2019-02-27T09:46:26.050Z,980.02
2019-02-27T09:47:26.497Z,980.00
2019-02-27T09:48:26.011Z,980.00
2019-02-27T09:49:26.076Z,980.04
2019-02-27T09:50:26.008Z,980.01
2019-02-27T09:51:25.990Z,980.07
2019-02-27T09:52:27.770Z,980.01
2019-02-27T09:53:26.004Z,980.00
2019-02-27T09:54:25.952Z,979.98
2019-02-27T09:55:25.972Z,979.92
2019-02-27T09:56:28.977Z,980.04
2019-02-27T09:57:27.158Z,979.92
2019-02-27T09:58:25.946Z,979.92
2019-02-27T09:59:25.887Z,979.91
2019-02-27T10:00:26.606Z,979.94
2019-02-27T10:01:26.150Z,979.83
2019-02-27T10:02:25.859Z,979.88
2019-02-27T10:03:25.849Z,979.83
2019-02-27T10:04:28.263Z,979.80
2019-02-27T10:05:25.836Z,979.88
2019-02-27T10:06:25.809Z,979.80
2019-02-27T10:07:25.849Z,979.83
2019-02-27T10:08:26.208Z,979.86
2019-02-27T10:09:25.781Z,979.88
2019-02-27T10:10:25.766Z,979.84
2019-02-27T10:11:25.767Z,979.84
2019-02-27T10:12:27.736Z,979.80
2019-02-27T10:13:25.784Z,979.81
2019-02-27T10:14:25.758Z,979.77
2019-02-27T10:15:25.981Z,979.78
2019-02-27T10:16:25.697Z,979.78
2019-02-27T10:17:25.749Z,979.76
2019-02-27T10:18:25.684Z,979.67
2019-02-27T10:19:26.868Z,979.75
2019-02-27T10:20:25.666Z,979.70
2019-02-27T10:21:25.649Z,979.63
2019-02-27T10:22:25.661Z,979.68
2019-02-27T10:23:30.389Z,979.60
2019-02-27T10:24:26.774Z,979.63
2019-02-27T10:25:25.604Z,979.57
2019-02-27T10:26:25.593Z,979.63
2019-02-27T10:27:28.733Z,979.58
2019-02-27T10:28:25.585Z,979.60
2019-02-27T10:29:25.571Z,979.52
2019-02-27T10:30:25.594Z,979.48
2019-02-27T10:31:26.127Z,979.52
2019-02-27T10:32:25.528Z,979.51
2019-02-27T10:33:25.923Z,979.52
2019-02-27T10:34:25.536Z,979.49
2019-02-27T10:35:26.840Z,979.47
2019-02-27T10:36:25.617Z,979.50
2019-02-27T10:37:25.616Z,979.46
2019-02-27T10:38:26.306Z,979.48
2019-02-27T10:39:25.543Z,979.43
2019-02-27T10:40:25.555Z,979.45
2019-02-27T10:41:25.460Z,979.45
2019-02-27T10:42:25.594Z,979.44
2019-02-27T10:43:25.575Z,979.48
2019-02-27T10:44:25.405Z,979.40
2019-02-27T10:45:25.394Z,979.40
2019-02-27T10:46:25.393Z,979.36
2019-02-27T10:47:25.441Z,979.35
2019-02-27T10:48:25.391Z,979.39
2019-02-27T10:49:25.350Z,979.39
2019-02-27T10:50:25.341Z,979.39
2019-02-27T10:51:25.344Z,979.29
2019-02-27T10:52:25.365Z,979.31
2019-02-27T10:53:27.437Z,979.34
2019-02-27T10:54:25.420Z,979.28
2019-02-27T10:55:26.811Z,979.26
2019-02-27T10:56:25.274Z,979.29
2019-02-27T10:57:25.278Z,979.30
2019-02-27T10:58:25.262Z,979.28
2019-02-27T10:59:25.355Z,979.29
2019-02-27T11:00:25.801Z,979.24
2019-02-27T11:01:25.316Z,979.27
2019-02-27T11:02:25.305Z,979.15
2019-02-27T11:03:27.241Z,979.19
2019-02-27T11:04:25.292Z,979.12
2019-02-27T11:05:25.189Z,979.18
2019-02-27T11:06:33.771Z,979.11
2019-02-27T11:07:26.266Z,979.18
2019-02-27T11:08:28.611Z,979.09
2019-02-27T11:09:25.133Z,979.08
2019-02-27T11:10:25.131Z,979.09
2019-02-27T11:11:25.222Z,978.98
2019-02-27T11:12:26.885Z,979.10
2019-02-27T11:13:25.194Z,979.08
2019-02-27T11:14:25.076Z,979.12
2019-02-27T11:15:25.077Z,979.00
2019-02-27T11:16:25.077Z,979.03
2019-02-27T11:17:25.055Z,978.99
2019-02-27T11:18:25.086Z,978.93
2019-02-27T11:19:25.033Z,978.96
2019-02-27T11:20:25.019Z,978.88
2019-02-27T11:21:25.007Z,978.91
2019-02-27T11:22:24.996Z,978.90
2019-02-27T11:23:25.047Z,978.91
2019-02-27T11:24:25.031Z,978.85
2019-02-27T11:25:24.966Z,978.86
2019-02-27T11:26:24.949Z,978.83
2019-02-27T11:27:24.940Z,978.84
2019-02-27T11:28:25.018Z,978.83
2019-02-27T11:29:24.919Z,978.82
2019-02-27T11:30:24.953Z,978.81
2019-02-27T11:31:24.998Z,978.79
2019-02-27T11:32:24.882Z,978.77
2019-02-27T11:33:26.047Z,978.76
2019-02-27T11:34:24.869Z,978.69
2019-02-27T11:35:25.936Z,978.76
2019-02-27T11:36:24.889Z,978.65
2019-02-27T11:37:24.833Z,978.68
2019-02-27T11:38:25.470Z,978.71
2019-02-27T11:39:24.811Z,978.66
2019-02-27T11:40:24.821Z,978.67
2019-02-27T11:41:24.785Z,978.64
2019-02-27T11:42:24.814Z,978.63
2019-02-27T11:43:24.771Z,978.65
2019-02-27T11:44:24.736Z,978.69
2019-02-27T11:45:24.926Z,978.65
2019-02-27T11:46:24.726Z,978.62
2019-02-27T11:47:24.779Z,978.72
2019-02-27T11:48:24.746Z,978.65
2019-02-27T11:49:24.699Z,978.59
2019-02-27T11:50:24.723Z,978.62
2019-02-27T11:51:24.687Z,978.63
2019-02-27T11:52:27.701Z,978.59
2019-02-27T11:53:24.664Z,978.63
2019-02-27T11:54:24.679Z,978.62
2019-02-27T11:55:24.734Z,978.56
2019-02-27T11:56:24.617Z,978.49
2019-02-27T11:57:27.394Z,978.57
2019-02-27T11:58:25.703Z,978.49
2019-02-27T11:59:24.582Z,978.47
2019-02-27T12:00:24.655Z,978.44
2019-02-27T12:01:24.562Z,978.40
2019-02-27T12:02:28.860Z,978.36
2019-02-27T12:03:25.628Z,978.46
2019-02-27T12:04:24.527Z,978.34
2019-02-27T12:05:24.522Z,978.28
2019-02-27T12:06:24.566Z,978.30
2019-02-27T12:07:24.709Z,978.32
2019-02-27T12:08:25.769Z,978.31
2019-02-27T12:09:24.479Z,978.25
2019-02-27T12:10:24.463Z,978.20
2019-02-27T12:11:24.452Z,978.17
2019-02-27T12:12:24.520Z,978.19
2019-02-27T12:13:24.435Z,978.13
2019-02-27T12:14:24.419Z,978.15
2019-02-27T12:15:24.588Z,978.13
2019-02-27T12:16:24.493Z,978.12
2019-02-27T12:17:25.721Z,978.07
2019-02-27T12:18:24.496Z,978.11
2019-02-27T12:19:24.466Z,978.05
2019-02-27T12:20:24.468Z,978.08
2019-02-27T12:21:25.446Z,977.96
2019-02-27T12:22:24.486Z,978.03
2019-02-27T12:23:24.601Z,978.02
2019-02-27T12:24:24.358Z,978.00
2019-02-27T12:25:29.041Z,977.97
2019-02-27T12:26:25.423Z,977.98
2019-02-27T12:27:45.088Z,978.03
2019-02-27T12:28:25.268Z,978.06